Hlavní strana
METAR-TAF:

METAR-TAF

Letiště :

Springfield-Beckley Municipal Airport

Springfield, Ohio, Spojené státy americké

zeměpisná šířka: 39-50N, zeměpisná délka: 083-50W, výška: 321 m

Aktuální stav počasí

Zpráva byla vytvořena před 1 hodinou a 13 minutami, v 01:56 UTC
Jihovýchodní vítr 3 kt
Teplota 2°C
Vlhkost vzduchu 64%
Tlak 1025 hPa
Viditelnost: 16.1 km
Jasno

METAR: KSGH 240156Z AUTO 13003KT 10SM CLR 02/M04 A3027 RMK AO2 SLP263 T00171044

Čas: 23:09 (03:09 UTC)


TAF: chybějící

Stav a předpovědi počasí z více než 4 000 letišť (zprávy METAR a TAF).

Červené a žluté tečky na mapě představují dostupné meteorologické stanice.

Když kurzor umístíte na tečku, zobrazí se název stanice.

Pak kliknutím zobrazíte stav a předpověď počasí.

Chcete-li změnit mapu, kliknutím na zelené tlačítko se znaménkem +mapu přiblížíte, kliknutím na zelené tlačítko se znaménkem – mapu oddálíte a kliknutím na zelené šipky přejdete na sousední mapy.


METAR-TAF: